• Join FlightAware (Why Join?)
  • Login
  • US Flag 
12:41PM EDT


 

Airport Tracker/Info


-or-


 

Live Flight TrackerFlight Track Log ✈ EJA831 ✈ 11-Dec-2013 ✈ KDFW - KSAT

Flight Track Log - Related Links

Times and Time Zones

All times are in EST time to prevent confusion due to time zone crossing. See the EJA831 flight status page for this flight to view local times or setup timezone preferences in your user account.

Time Position Orientation Groundspeed Altitude Reporting Facility
EST Latitude Longitude Course Direction KTS MPH feet Rate Location/Type
06:01PM 33.0000 -97.0833 340° North 242 278 6,700  Level Dallas / Fort Worth TRACON
06:02PM 33.0167 -97.1500 287° West 228 262 9,500 1,320 Climbing Dallas / Fort Worth TRACON
06:04PM 32.9319 -97.2908 234° Southwest 300 345 10,900 1,140 Climbing Fort Worth Center
06:05PM 32.8428 -97.2881 179° South 323 372 13,100 2,220 Climbing Fort Worth Center
06:06PM 32.7369 -97.2650 170° South 366 421 15,600 2,220 Climbing Fort Worth Center
06:07PM 32.6383 -97.2203 159° South 379 436 17,700 2,160 Climbing Fort Worth Center
06:08PM 32.5397 -97.1756 159° South 379 436 20,100 2,220 Climbing Fort Worth Center
06:09PM 32.4289 -97.1258 159° South 388 447 22,300 1,680 Climbing Fort Worth Center
06:10PM 32.3261 -97.0783 159° South 398 458 23,600 780 Climbing Fort Worth Center
06:11PM 32.2164 -97.0619 173° South 398 458 24,000 180 Climbing Fort Worth Center
06:12PM 32.1122 -97.0897 193° South 384 442 24,000  Level Fort Worth Center
06:13PM 32.0081 -97.1164 192° South 383 441 24,000  Level Fort Worth Center
06:14PM 31.9000 -97.1461 193° South 385 443 24,000  Level Fort Worth Center
06:15PM 31.7947 -97.1722 192° South 383 441 24,000  Level Fort Worth Center
06:16PM 31.6711 -97.2050 193° South 385 443 24,000  Level Fort Worth Center
06:17PM 31.5989 -97.2236 192° South 388 447 24,000  Level Houston Center
06:18PM 31.4742 -97.2533 191° South 388 447 24,000  Level Houston Center
06:19PM 31.3689 -97.2808 193° South 386 444 24,000  Level Houston Center
06:20PM 31.2636 -97.3075 192° South 383 441 24,000  Level Houston Center
06:21PM 31.1578 -97.3347 192° South 385 443 24,000  Level Houston Center
06:22PM 31.0536 -97.3619 193° South 385 443 24,000  Level Houston Center
06:23PM 30.9342 -97.3922 192° South 380 437 24,000  Level Houston Center
06:24PM 30.8425 -97.4139 191° South 343 395 24,000  Level Houston Center
06:25PM 30.7522 -97.4364 192° South 333 383 24,000  Level Houston Center
06:26PM 30.6611 -97.4583 192° South 331 381 24,000 -780 Level Houston Center
06:27PM 30.5658 -97.4825 192° South 344 396 22,400 -1,500 Descending Houston Center
06:28PM 30.4481 -97.5114 192° South 363 418 21,000 -720 Descending Houston Center
06:30PM 30.3514 -97.5483 198° South 360 414 21,000 -540 Level Houston Center
06:31PM 30.2678 -97.6053 210° Southwest 346 398 19,900 -1,320 Descending Houston Center
06:32PM 30.1858 -97.6633 211° Southwest 343 395 18,300 -1,380 Descending Houston Center
06:33PM 30.1025 -97.7208 211° Southwest 345 397 17,100 -1,380 Descending Houston Center
06:33PM 30.0758 -97.7378 209° Southwest 347 399 16,600 -2,160 Descending Houston Center
06:33PM 30.0642 -97.7464 213° Southwest 347 399 16,200 -1,680 Descending Houston Center
06:34PM 30.0072 -97.7844 210° Southwest 340 391 15,200 -1,620 Descending Houston Center
06:34PM 29.9778 -97.8083 215° Southwest 337 388 14,600 -1,560 Descending Houston Center
06:35PM 29.9272 -97.8397 208° Southwest 336 387 13,600 -1,500 Descending Houston Center
06:35PM 29.8992 -97.8664 219° Southwest 333 383 13,100 -1,380 Descending Houston Center
06:36PM 29.8731 -97.9189 240° Southwest 321 369 12,200 -1,500 Descending Houston Center
06:36PM 29.8611 -97.9508 247° West 286 329 11,600 -1,560 Descending Houston Center
06:37PM 29.8381 -98.0039 243° Southwest 276 318 10,600 -1,500 Descending Houston Center
06:37PM 29.8267 -98.0297 243° Southwest 269 310 10,100 -1,500 Descending Houston Center
06:38PM 29.8042 -98.0839 244° Southwest 277 319 9,100 -1,380 Descending Houston Center
06:38PM 29.7942 -98.1086 245° Southwest 275 316 8,700 -1,560 Descending Houston Center
06:39PM 29.7667 -98.1669 242° Southwest 272 313 7,500 -1,620 Descending Houston Center
06:39PM 29.7500 -98.1742 201° Southwest 275 316 7,100 -1,380 Descending Houston Center
06:40PM 29.6931 -98.1894 193° South 271 312 6,100 -1,140 Descending Houston Center
06:40PM 29.6722 -98.1958 195° South 266 306 6,000 -600 Descending Houston Center
06:41PM 29.6172 -98.2097 192° South 261 300 5,500 -900 Descending Houston Center
06:41PM 29.6025 -98.2139 194° South 254 292 5,100 -540 Descending Houston Center
06:42PM 29.5544 -98.2228 189° South 232 267 5,000 -120 Descending Houston Center
06:42PM 29.5403 -98.2239 184° South 220 253 5,000 -960 Level Houston Center
06:43PM 29.4864 -98.2264 182° South 226 260 4,000 -1,020 Descending Houston Center
06:43PM 29.4756 -98.2272 184° South 227 261 4,000  Level Houston Center
06:44PM 29.4261 -98.2478 200° South 227 261 4,000  Level Houston Center
06:44PM 29.4169 -98.2536 209° Southwest 228 262 4,000 -1,020 Level Houston Center
06:45PM 29.4056 -98.3053 256° West 214 246 3,000 -1,020 Descending Houston Center
06:45PM 29.4081 -98.3144 287° West 207 238 3,000  Level Houston Center
06:46PM 29.4361 -98.3492 313° West 161 185 3,000  Level Houston Center
06:46PM 29.4367 -98.3519 283° West 146 168 3,000 -300 Level Houston Center
06:47PM 29.4647 -98.3858 314° West 155 178 2,700 -420 Descending Houston Center
06:47PM 29.4678 -98.3914 302° West 151 174 2,600 -900 Descending Houston Center
06:48PM 29.4928 -98.4214 314° West 143 165 1,800 -840 Descending Houston Center
06:48PM 29.4939 -98.4242 295° West 135 155 1,800 -720 Level Houston Center
06:49PM 29.5161 -98.4519 313° West 130 150 1,100 -720 Descending Houston Center
06:49PM 29.5178 -98.4550 302° West 123 142 1,100 -420 Level Houston Center
06:50PM 29.5381 -98.4792 314° West 126 145 700 -420 Descending Houston Center